Time;durP1;ratioP1;P1;durP2;ratioP2;P2;SDS_P1;SDS_P2;PMS_P1;PMS_P2;Temp;Humidity;BMP_temperature;BMP_pressure;BME280_temperature;BME280_humidity;BME280_pressure;Samples;Min_cycle;Max_cycle;Signal;HPM_P1;HPM_P2
2023/03/04 00:01:39;;;;;;;;;;;20.60;77.00;;;;;;5082805;28;19914;-54
2023/03/04 00:04:05;;;;;;;;;;;20.70;76.80;;;;;;5077179;28;19912;-51
2023/03/04 00:06:30;;;;;;;;;;;20.80;76.60;;;;;;5077117;28;19959;-51
2023/03/04 00:08:56;;;;;;;;;;;20.90;76.40;;;;;;5095093;28;19908;-50
2023/03/04 00:11:22;;;;;;;;;;;20.90;76.40;;;;;;5077085;28;19908;-49
2023/03/04 00:13:47;;;;;;;;;;;20.80;76.50;;;;;;5095007;28;19912;-49
2023/03/04 00:16:13;;;;;;;;;;;20.80;76.50;;;;;;5076959;28;19908;-51
2023/03/04 00:18:38;;;;;;;;;;;20.70;76.70;;;;;;5095143;28;19915;-52
2023/03/04 00:21:03;;;;;;;;;;;20.60;77.00;;;;;;5076994;28;19931;-51
2023/03/04 00:23:29;;;;;;;;;;;20.50;77.10;;;;;;5095028;28;19916;-51
2023/03/04 00:25:54;;;;;;;;;;;20.40;77.20;;;;;;5095225;28;19920;-50
2023/03/04 00:28:20;;;;;;;;;;;20.30;77.60;;;;;;5094697;28;19916;-54
2023/03/04 00:30:45;;;;;;;;;;;20.30;78.00;;;;;;5094931;28;19915;-51
2023/03/04 00:33:11;;;;;;;;;;;20.30;77.70;;;;;;5094555;28;20422;-48
2023/03/04 00:35:36;;;;;;;;;;;20.40;77.80;;;;;;5076563;28;19908;-53
2023/03/04 00:38:02;;;;;;;;;;;20.50;77.30;;;;;;5094767;28;19915;-52
2023/03/04 00:40:27;;;;;;;;;;;20.60;77.30;;;;;;5094852;28;19920;-52
2023/03/04 00:42:53;;;;;;;;;;;20.70;77.10;;;;;;5076515;28;19994;-51
2023/03/04 00:45:18;;;;;;;;;;;20.70;76.90;;;;;;5094985;28;20000;-49
2023/03/04 00:47:44;;;;;;;;;;;20.70;76.60;;;;;;5094385;28;19908;-50
2023/03/04 00:50:09;;;;;;;;;;;20.60;77.10;;;;;;5076459;28;19915;-50
2023/03/04 00:52:35;;;;;;;;;;;20.50;77.20;;;;;;5094237;28;19943;-52
2023/03/04 00:55:00;;;;;;;;;;;20.40;77.40;;;;;;5094528;28;19908;-53
2023/03/04 00:57:26;;;;;;;;;;;20.30;77.40;;;;;;5094551;28;19915;-52
2023/03/04 00:59:51;;;;;;;;;;;20.20;77.80;;;;;;5094093;28;20301;-52
2023/03/04 01:02:17;;;;;;;;;;;20.20;77.70;;;;;;5081654;28;19908;-51
2023/03/04 01:04:42;;;;;;;;;;;20.20;78.00;;;;;;5074181;28;20275;-49
2023/03/04 01:07:08;;;;;;;;;;;20.30;77.40;;;;;;5074462;28;19913;-52
2023/03/04 01:09:34;;;;;;;;;;;20.40;77.40;;;;;;5073813;28;19996;-50
2023/03/04 01:11:59;;;;;;;;;;;20.60;77.00;;;;;;5055800;28;19912;-51
2023/03/04 01:14:25;;;;;;;;;;;20.70;76.90;;;;;;5073801;28;19908;-50
2023/03/04 01:16:51;;;;;;;;;;;20.70;76.40;;;;;;5056066;28;19999;-52
2023/03/04 01:19:16;;;;;;;;;;;20.80;76.60;;;;;;5073960;28;19909;-50
2023/03/04 01:21:42;;;;;;;;;;;20.80;76.30;;;;;;5074232;28;20054;-51
2023/03/04 01:24:07;;;;;;;;;;;20.80;76.50;;;;;;5056040;28;19912;-52
2023/03/04 01:26:33;;;;;;;;;;;20.80;76.50;;;;;;5073982;28;20003;-54
2023/03/04 01:28:58;;;;;;;;;;;20.70;76.60;;;;;;5074258;28;20010;-49
2023/03/04 01:31:24;;;;;;;;;;;20.60;76.90;;;;;;5073618;28;19909;-50
2023/03/04 01:33:49;;;;;;;;;;;20.60;77.00;;;;;;5055942;28;19908;-49
2023/03/04 01:36:15;;;;;;;;;;;20.50;77.30;;;;;;5073786;28;19908;-48
2023/03/04 01:38:40;;;;;;;;;;;20.50;77.40;;;;;;5073591;28;20374;-50
2023/03/04 01:41:06;;;;;;;;;;;20.50;77.40;;;;;;5073439;28;19920;-51
2023/03/04 01:43:34;;;;;;;;;;;20.50;77.40;;;;;;5073670;28;20003;-49
2023/03/04 01:45:59;;;;;;;;;;;20.50;77.40;;;;;;5073545;28;20342;-49
2023/03/04 01:48:32;;;;;;;;;;;20.60;77.30;;;;;;5073489;28;19978;-52
2023/03/04 01:51:01;;;;;;;;;;;20.50;77.00;;;;;;5073864;28;20004;-51
2023/03/04 01:53:28;;;;;;;;;;;20.60;77.20;;;;;;5073731;28;19909;-51
2023/03/04 01:56:00;;;;;;;;;;;20.50;77.30;;;;;;5073431;28;19940;-52
2023/03/04 01:58:27;;;;;;;;;;;20.40;77.30;;;;;;5073385;28;20287;-52
2023/03/04 02:00:53;;;;;;;;;;;20.30;77.40;;;;;;5056820;28;19908;-48
2023/03/04 02:03:19;;;;;;;;;;;20.30;78.00;;;;;;5093776;28;20007;-49
2023/03/04 02:05:45;;;;;;;;;;;20.20;78.00;;;;;;5097394;28;19916;-54
2023/03/04 02:08:11;;;;;;;;;;;20.00;78.30;;;;;;5097748;28;19908;-50
2023/03/04 02:10:37;;;;;;;;;;;20.00;78.50;;;;;;5097362;28;20348;-48
2023/03/04 02:13:03;;;;;;;;;;;19.90;78.60;;;;;;5097273;28;19908;-52
2023/03/04 02:15:29;;;;;;;;;;;19.90;78.70;;;;;;5097571;28;19958;-49
2023/03/04 02:17:55;;;;;;;;;;;20.00;78.30;;;;;;5097509;28;19962;-51
2023/03/04 02:20:26;;;;;;;;;;;20.10;78.00;;;;;;5097749;28;19908;-49
2023/03/04 02:23:10;;;;;;;;;;;20.30;77.70;;;;;;5079056;28;20393;-52
2023/03/04 02:25:45;;;;;;;;;;;20.40;77.20;;;;;;5097452;28;19919;-49
2023/03/04 02:28:10;;;;;;;;;;;20.60;76.90;;;;;;5097370;28;19908;-51
2023/03/04 02:30:36;;;;;;;;;;;20.60;77.10;;;;;;5096994;28;20255;-48
2023/03/04 02:33:01;;;;;;;;;;;20.60;77.80;;;;;;5097275;28;20011;-52
2023/03/04 02:35:27;;;;;;;;;;;20.50;77.20;;;;;;5096910;28;19915;-52
2023/03/04 02:37:52;;;;;;;;;;;20.50;77.30;;;;;;5078963;28;20088;-50
2023/03/04 02:40:22;;;;;;;;;;;20.40;77.50;;;;;;5097048;28;19927;-51
2023/03/04 02:42:47;;;;;;;;;;;20.30;77.50;;;;;;5096694;28;19915;-51
2023/03/04 02:45:39;;;;;;;;;;;20.30;77.90;;;;;;5096983;28;19916;-48
2023/03/04 02:48:05;;;;;;;;;;;20.30;77.50;;;;;;5074439;28;19908;-49
2023/03/04 02:50:33;;;;;;;;;;;20.40;77.60;;;;;;5096843;28;20004;-52
2023/03/04 02:52:58;;;;;;;;;;;20.40;77.20;;;;;;5096863;28;19908;-48
2023/03/04 02:55:24;;;;;;;;;;;20.50;77.40;;;;;;5078649;28;20366;-51
2023/03/04 02:57:49;;;;;;;;;;;20.50;77.30;;;;;;5096711;28;19966;-49
2023/03/04 03:00:15;;;;;;;;;;;20.60;77.20;;;;;;5078593;28;20359;-50
2023/03/04 03:02:41;;;;;;;;;;;20.70;77.30;;;;;;5080206;28;19915;-48
2023/03/04 03:05:06;;;;;;;;;;;20.70;76.70;;;;;;5058457;28;19914;-48
2023/03/04 03:07:33;;;;;;;;;;;20.70;76.80;;;;;;5076692;28;19913;-52
2023/03/04 03:09:59;;;;;;;;;;;20.70;76.80;;;;;;5076283;28;19966;-47
2023/03/04 03:12:25;;;;;;;;;;;20.70;76.60;;;;;;5076212;28;19908;-49
2023/03/04 03:14:50;;;;;;;;;;;20.70;76.80;;;;;;5057949;28;20271;-52
2023/03/04 03:17:16;;;;;;;;;;;20.70;76.70;;;;;;5074965;28;19977;-52
2023/03/04 03:19:41;;;;;;;;;;;20.60;76.90;;;;;;5075869;28;19915;-50
2023/03/04 03:22:07;;;;;;;;;;;20.50;76.70;;;;;;5076058;28;20367;-51
2023/03/04 03:24:32;;;;;;;;;;;20.40;77.20;;;;;;5075970;28;19912;-53
2023/03/04 03:26:58;;;;;;;;;;;20.40;77.80;;;;;;5076246;28;20007;-48
2023/03/04 03:29:23;;;;;;;;;;;20.40;77.80;;;;;;5057965;28;19909;-51
2023/03/04 03:31:48;;;;;;;;;;;20.40;77.70;;;;;;5076177;28;19912;-50
2023/03/04 03:34:14;;;;;;;;;;;20.40;77.30;;;;;;5075889;28;19909;-52
2023/03/04 03:36:39;;;;;;;;;;;20.60;77.50;;;;;;5075841;28;20343;-51
2023/03/04 03:39:05;;;;;;;;;;;20.60;77.10;;;;;;5057819;28;19921;-49
2023/03/04 03:41:30;;;;;;;;;;;20.70;77.00;;;;;;5075701;28;19915;-52
2023/03/04 03:43:56;;;;;;;;;;;20.80;77.00;;;;;;5057488;28;19920;-48
2023/03/04 03:46:21;;;;;;;;;;;20.80;76.50;;;;;;5075629;28;19967;-53
2023/03/04 03:48:47;;;;;;;;;;;20.90;76.50;;;;;;5075272;28;20426;-50
2023/03/04 03:51:12;;;;;;;;;;;20.80;76.40;;;;;;5057505;28;19908;-52
2023/03/04 03:53:38;;;;;;;;;;;20.70;76.20;;;;;;5057493;28;19912;-52
2023/03/04 03:56:03;;;;;;;;;;;20.70;76.70;;;;;;5075109;28;19931;-49
2023/03/04 03:58:29;;;;;;;;;;;20.60;77.00;;;;;;5075285;28;19966;-52
2023/03/04 04:00:54;;;;;;;;;;;20.40;77.10;;;;;;5076812;28;19972;-48
2023/03/04 04:03:20;;;;;;;;;;;20.40;77.30;;;;;;5077218;28;19919;-52
2023/03/04 04:05:45;;;;;;;;;;;20.30;77.40;;;;;;5095187;28;19912;-54
2023/03/04 04:08:14;;;;;;;;;;;20.30;77.60;;;;;;5077330;28;19909;-49
2023/03/04 04:10:40;;;;;;;;;;;20.30;77.80;;;;;;5077196;28;20003;-49
2023/03/04 04:13:06;;;;;;;;;;;20.50;77.30;;;;;;5095676;28;19947;-49
2023/03/04 04:15:31;;;;;;;;;;;20.60;77.30;;;;;;5095540;28;20258;-51
2023/03/04 04:17:57;;;;;;;;;;;20.70;76.60;;;;;;5095185;28;19908;-50
2023/03/04 04:20:22;;;;;;;;;;;20.80;76.50;;;;;;5094888;28;20003;-51
2023/03/04 04:22:48;;;;;;;;;;;20.70;76.70;;;;;;5094697;28;19915;-49
2023/03/04 04:25:13;;;;;;;;;;;20.60;76.90;;;;;;5095286;28;20331;-50
2023/03/04 04:27:38;;;;;;;;;;;20.50;76.90;;;;;;5094988;28;19912;-48
2023/03/04 04:30:04;;;;;;;;;;;20.40;77.40;;;;;;5094664;28;19915;-48
2023/03/04 04:32:30;;;;;;;;;;;20.30;77.70;;;;;;5076407;28;19908;-50
2023/03/04 04:34:55;;;;;;;;;;;20.20;77.80;;;;;;5076577;28;20374;-49
2023/03/04 04:37:21;;;;;;;;;;;20.10;78.10;;;;;;5076636;28;19958;-54
2023/03/04 04:39:46;;;;;;;;;;;20.10;77.90;;;;;;5090135;28;19959;-52
2023/03/04 04:42:12;;;;;;;;;;;20.10;77.90;;;;;;5059189;28;19958;-51
2023/03/04 04:44:37;;;;;;;;;;;20.20;77.50;;;;;;5074418;28;20003;-51
2023/03/04 04:47:05;;;;;;;;;;;20.30;77.80;;;;;;5074101;28;20279;-51
2023/03/04 04:49:30;;;;;;;;;;;20.50;77.60;;;;;;5074459;28;19908;-49
2023/03/04 04:51:56;;;;;;;;;;;20.70;77.20;;;;;;5074247;28;19990;-48
2023/03/04 04:54:21;;;;;;;;;;;20.80;76.70;;;;;;5056307;28;19916;-49
2023/03/04 04:56:47;;;;;;;;;;;20.80;76.80;;;;;;5074299;28;19991;-53
2023/03/04 04:59:12;;;;;;;;;;;20.80;76.50;;;;;;5073776;28;20058;-50
2023/03/04 05:01:38;;;;;;;;;;;20.70;76.40;;;;;;5073902;28;19916;-53
2023/03/04 05:04:04;;;;;;;;;;;20.60;77.20;;;;;;5073876;28;19913;-52
2023/03/04 05:06:29;;;;;;;;;;;20.50;77.30;;;;;;5073812;28;19916;-52
2023/03/04 05:08:55;;;;;;;;;;;20.50;77.10;;;;;;5074124;28;19908;-53
2023/03/04 05:11:20;;;;;;;;;;;20.30;77.50;;;;;;5073805;28;19962;-49
2023/03/04 05:13:46;;;;;;;;;;;20.30;77.60;;;;;;5073781;28;20295;-53
2023/03/04 05:16:13;;;;;;;;;;;20.30;77.40;;;;;;5073882;28;20003;-51
2023/03/04 05:18:38;;;;;;;;;;;20.40;77.50;;;;;;5073798;28;19908;-50
2023/03/04 05:21:04;;;;;;;;;;;20.60;77.20;;;;;;5056092;28;19908;-52
2023/03/04 05:23:31;;;;;;;;;;;20.70;76.80;;;;;;5074148;28;19919;-49
2023/03/04 05:25:57;;;;;;;;;;;20.90;76.70;;;;;;5073926;28;19912;-51
2023/03/04 05:28:22;;;;;;;;;;;21.00;76.20;;;;;;5073764;28;19908;-50
2023/03/04 05:30:48;;;;;;;;;;;21.00;76.30;;;;;;5056007;28;19915;-53
2023/03/04 05:33:15;;;;;;;;;;;20.90;76.30;;;;;;5073718;28;20263;-51
2023/03/04 05:35:41;;;;;;;;;;;20.80;76.70;;;;;;5073738;28;19908;-50
2023/03/04 05:38:08;;;;;;;;;;;20.70;76.70;;;;;;5073395;28;19923;-54
2023/03/04 05:40:34;;;;;;;;;;;20.60;76.40;;;;;;5076656;28;19920;-54
2023/03/04 05:42:59;;;;;;;;;;;20.50;77.50;;;;;;5080996;28;19993;-52
2023/03/04 05:45:25;;;;;;;;;;;20.30;77.50;;;;;;5077692;28;19912;-51
2023/03/04 05:47:51;;;;;;;;;;;20.20;78.10;;;;;;5079218;28;19918;-52
2023/03/04 05:50:16;;;;;;;;;;;20.20;77.70;;;;;;5083149;28;19908;-52
2023/03/04 05:52:42;;;;;;;;;;;20.20;78.20;;;;;;5077586;28;19954;-52
2023/03/04 05:55:07;;;;;;;;;;;20.30;77.60;;;;;;5058206;28;19916;-51
2023/03/04 05:57:33;;;;;;;;;;;20.40;75.50;;;;;;5075817;28;19916;-51
2023/03/04 05:59:58;;;;;;;;;;;20.60;75.90;;;;;;5058147;28;20003;-52
2023/03/04 06:02:24;;;;;;;;;;;20.70;76.30;;;;;;5061016;28;19913;-53
2023/03/04 06:04:49;;;;;;;;;;;20.90;76.50;;;;;;5075532;28;19924;-48
2023/03/04 06:07:15;;;;;;;;;;;20.90;76.20;;;;;;5059300;28;19919;-51
2023/03/04 06:09:40;;;;;;;;;;;21.00;76.40;;;;;;5076961;28;20356;-52
2023/03/04 06:12:06;;;;;;;;;;;21.00;76.20;;;;;;5076987;28;19914;-50
2023/03/04 06:14:31;;;;;;;;;;;20.90;76.30;;;;;;5077489;28;19931;-53
2023/03/04 06:16:57;;;;;;;;;;;20.80;76.00;;;;;;5076903;28;19924;-52
2023/03/04 06:19:22;;;;;;;;;;;20.70;76.80;;;;;;5077142;28;19916;-49
2023/03/04 06:21:48;;;;;;;;;;;20.60;76.70;;;;;;5077475;28;19989;-52
2023/03/04 06:24:13;;;;;;;;;;;20.40;76.80;;;;;;5077200;28;19913;-48
2023/03/04 06:26:39;;;;;;;;;;;20.30;77.40;;;;;;5077381;28;20262;-49
2023/03/04 06:29:05;;;;;;;;;;;20.30;77.40;;;;;;5077022;28;19991;-48
2023/03/04 06:31:30;;;;;;;;;;;20.30;77.60;;;;;;5077003;28;19909;-52
2023/03/04 06:33:56;;;;;;;;;;;20.30;77.50;;;;;;5076545;28;20359;-51
2023/03/04 06:36:21;;;;;;;;;;;20.50;77.50;;;;;;5076857;28;19916;-49
2023/03/04 06:38:47;;;;;;;;;;;20.70;76.90;;;;;;5076323;28;20398;-50
2023/03/04 06:41:12;;;;;;;;;;;20.80;76.80;;;;;;5076764;28;19909;-48
2023/03/04 06:43:38;;;;;;;;;;;20.90;76.50;;;;;;5076413;28;20367;-49
2023/03/04 06:46:04;;;;;;;;;;;21.00;76.50;;;;;;5076485;28;19918;-51
2023/03/04 06:48:30;;;;;;;;;;;20.90;75.80;;;;;;5076377;28;19981;-54
2023/03/04 06:50:55;;;;;;;;;;;20.90;76.10;;;;;;5076355;28;19931;-49
2023/03/04 06:53:20;;;;;;;;;;;20.90;75.80;;;;;;5076370;28;19908;-49
2023/03/04 06:55:47;;;;;;;;;;;20.80;76.40;;;;;;5076075;28;19985;-50
2023/03/04 06:58:12;;;;;;;;;;;20.70;76.80;;;;;;5076402;28;19915;-48
2023/03/04 07:00:38;;;;;;;;;;;20.60;76.60;;;;;;5058457;28;19912;-52
2023/03/04 07:03:03;;;;;;;;;;;20.50;77.10;;;;;;5095257;28;19912;-50
2023/03/04 07:05:28;;;;;;;;;;;20.50;77.20;;;;;;5078356;28;19930;-48
2023/03/04 07:07:54;;;;;;;;;;;20.40;77.20;;;;;;5078334;28;19908;-49
2023/03/04 07:10:20;;;;;;;;;;;20.40;77.30;;;;;;5096063;28;20290;-49
2023/03/04 07:12:45;;;;;;;;;;;20.50;77.50;;;;;;5096401;28;19912;-49
2023/03/04 07:15:11;;;;;;;;;;;20.50;77.20;;;;;;5096198;28;19909;-50
2023/03/04 07:17:36;;;;;;;;;;;20.60;77.30;;;;;;5096278;28;19908;-49
2023/03/04 07:20:02;;;;;;;;;;;20.70;76.70;;;;;;5096205;28;19923;-51
2023/03/04 07:22:27;;;;;;;;;;;20.80;76.60;;;;;;5095827;28;19908;-53
2023/03/04 07:24:53;;;;;;;;;;;20.80;76.50;;;;;;5096045;28;19912;-48
2023/03/04 07:27:18;;;;;;;;;;;20.80;76.90;;;;;;5077906;28;19916;-51
2023/03/04 07:29:44;;;;;;;;;;;20.80;76.60;;;;;;5096169;28;19915;-48
2023/03/04 07:32:09;;;;;;;;;;;20.80;76.60;;;;;;5077769;28;19915;-52
2023/03/04 07:34:35;;;;;;;;;;;20.70;76.20;;;;;;5077729;28;19915;-53
2023/03/04 07:37:00;;;;;;;;;;;20.60;77.70;;;;;;5077568;28;20350;-55
2023/03/04 07:39:26;;;;;;;;;;;20.50;77.20;;;;;;5077352;28;19927;-49
2023/03/04 07:41:51;;;;;;;;;;;20.50;77.40;;;;;;5095853;28;19912;-49
2023/03/04 07:44:17;;;;;;;;;;;20.40;77.10;;;;;;5095681;28;19955;-48
2023/03/04 07:46:42;;;;;;;;;;;20.40;77.50;;;;;;5095728;28;20260;-50
2023/03/04 07:49:10;;;;;;;;;;;20.40;77.40;;;;;;5095571;28;19922;-50
2023/03/04 07:51:36;;;;;;;;;;;20.40;77.60;;;;;;5077380;28;19908;-51
2023/03/04 07:54:01;;;;;;;;;;;20.50;76.80;;;;;;5089644;28;19936;-51
2023/03/04 07:56:28;;;;;;;;;;;20.70;77.00;;;;;;5075157;28;20268;-52
2023/03/04 07:58:55;;;;;;;;;;;20.80;76.60;;;;;;5080368;28;19912;-52
2023/03/04 08:01:22;;;;;;;;;;;20.90;76.60;;;;;;5084723;28;20378;-52
2023/03/04 08:03:48;;;;;;;;;;;21.00;76.50;;;;;;5093455;28;19912;-51
2023/03/04 08:06:14;;;;;;;;;;;21.00;76.30;;;;;;5072196;28;19924;-51
2023/03/04 08:08:40;;;;;;;;;;;20.90;76.20;;;;;;5063569;28;19913;-51
2023/03/04 08:11:07;;;;;;;;;;;20.80;76.70;;;;;;5074939;28;19916;-49
2023/03/04 08:13:33;;;;;;;;;;;20.80;76.40;;;;;;5074491;28;20347;-50
2023/03/04 08:15:59;;;;;;;;;;;20.70;76.70;;;;;;5056920;28;20244;-48
2023/03/04 08:18:24;;;;;;;;;;;20.60;76.90;;;;;;5074472;28;19991;-52
2023/03/04 08:20:51;;;;;;;;;;;20.50;77.50;;;;;;5075818;28;19940;-51
2023/03/04 08:23:17;;;;;;;;;;;20.50;77.30;;;;;;5074217;28;19935;-51
2023/03/04 08:25:42;;;;;;;;;;;20.50;77.40;;;;;;5074179;28;19912;-52
2023/03/04 08:28:08;;;;;;;;;;;20.50;77.30;;;;;;5054606;28;19916;-51
2023/03/04 08:30:34;;;;;;;;;;;20.60;76.70;;;;;;5053577;28;19971;-50
2023/03/04 08:33:00;;;;;;;;;;;20.70;76.60;;;;;;5057517;28;19963;-49
2023/03/04 08:35:26;;;;;;;;;;;20.90;76.50;;;;;;5064603;28;19908;-50
2023/03/04 08:37:51;;;;;;;;;;;20.90;76.70;;;;;;5074280;28;19912;-51
2023/03/04 08:40:17;;;;;;;;;;;20.90;76.50;;;;;;5074114;28;20279;-54
2023/03/04 08:42:42;;;;;;;;;;;20.80;76.40;;;;;;5074638;28;20007;-52
2023/03/04 08:45:08;;;;;;;;;;;20.90;76.60;;;;;;5074278;28;19916;-49
2023/03/04 08:47:34;;;;;;;;;;;20.80;77.00;;;;;;5075286;28;20382;-50
2023/03/04 08:49:59;;;;;;;;;;;20.70;77.00;;;;;;5084857;28;19912;-53
2023/03/04 08:52:25;;;;;;;;;;;20.60;76.80;;;;;;5074154;28;19999;-50
2023/03/04 08:54:50;;;;;;;;;;;20.50;77.10;;;;;;5087951;28;19923;-55
2023/03/04 08:57:16;;;;;;;;;;;20.30;77.40;;;;;;5069775;28;19919;-52
2023/03/04 08:59:41;;;;;;;;;;;20.30;77.70;;;;;;5074139;28;19958;-50
2023/03/04 09:02:08;;;;;;;;;;;20.10;77.60;;;;;;5068654;28;19913;-51
2023/03/04 09:04:33;;;;;;;;;;;20.10;78.00;;;;;;5053608;28;19920;-48
2023/03/04 09:06:59;;;;;;;;;;;20.00;78.50;;;;;;5070305;28;19916;-50
2023/03/04 09:09:24;;;;;;;;;;;19.90;78.50;;;;;;5056204;28;19905;-53
2023/03/04 09:11:50;;;;;;;;;;;19.90;78.60;;;;;;5073920;28;20327;-51
2023/03/04 09:14:15;;;;;;;;;;;19.80;78.80;;;;;;5054857;28;19950;-50
2023/03/04 09:16:40;;;;;;;;;;;19.80;78.80;;;;;;5073472;28;20052;-51
2023/03/04 09:19:06;;;;;;;;;;;19.70;78.80;;;;;;5073660;28;19991;-51
2023/03/04 09:21:31;;;;;;;;;;;19.60;78.90;;;;;;5073421;28;20382;-53
2023/03/04 09:23:57;;;;;;;;;;;19.60;78.90;;;;;;5055936;28;19955;-50
2023/03/04 09:26:24;;;;;;;;;;;19.50;79.40;;;;;;5073620;28;20065;-52
2023/03/04 09:28:53;;;;;;;;;;;19.40;79.60;;;;;;5060993;28;19916;-52
2023/03/04 09:31:19;;;;;;;;;;;19.30;79.70;;;;;;5060905;28;20006;-51
2023/03/04 09:33:45;;;;;;;;;;;19.30;79.90;;;;;;5073742;28;19913;-51
2023/03/04 09:36:11;;;;;;;;;;;19.30;80.10;;;;;;5055490;28;19958;-53
2023/03/04 09:38:37;;;;;;;;;;;19.20;80.30;;;;;;5073477;28;19909;-49
2023/03/04 09:41:07;;;;;;;;;;;19.10;80.50;;;;;;5073215;28;20286;-54
2023/03/04 09:43:34;;;;;;;;;;;19.10;80.60;;;;;;5073556;28;19912;-52
2023/03/04 09:46:01;;;;;;;;;;;19.00;80.70;;;;;;5073127;28;19917;-54
2023/03/04 09:48:28;;;;;;;;;;;18.90;80.90;;;;;;5073174;28;19909;-53
2023/03/04 09:51:14;;;;;;;;;;;18.90;80.80;;;;;;5076556;28;19919;-52
2023/03/04 09:53:45;;;;;;;;;;;18.80;80.90;;;;;;5051917;28;19921;-50
2023/03/04 09:56:12;;;;;;;;;;;18.80;80.90;;;;;;5069912;28;19912;-53
2023/03/04 09:58:43;;;;;;;;;;;18.80;81.20;;;;;;5073223;28;19908;-50
2023/03/04 10:01:11;;;;;;;;;;;18.70;81.20;;;;;;5075514;28;19913;-50
2023/03/04 10:03:47;;;;;;;;;;;18.70;81.30;;;;;;5085165;28;19916;-56
2023/03/04 10:06:15;;;;;;;;;;;18.70;81.60;;;;;;5060039;28;20011;-56
2023/03/04 10:08:48;;;;;;;;;;;18.60;81.60;;;;;;5072788;28;19915;-53
2023/03/04 10:11:23;;;;;;;;;;;18.60;81.70;;;;;;5055014;28;19962;-55
2023/03/04 10:13:52;;;;;;;;;;;18.50;81.80;;;;;;5055277;28;19908;-54
2023/03/04 10:16:20;;;;;;;;;;;18.50;82.00;;;;;;5072751;28;20073;-52
2023/03/04 10:18:57;;;;;;;;;;;18.40;82.00;;;;;;5071871;28;19913;-54
2023/03/04 10:21:29;;;;;;;;;;;18.40;81.70;;;;;;5072830;28;20003;-52
2023/03/04 10:23:55;;;;;;;;;;;18.40;81.90;;;;;;5073438;28;19913;-53
2023/03/04 10:26:21;;;;;;;;;;;18.30;82.10;;;;;;5058057;28;19919;-52
2023/03/04 10:28:47;;;;;;;;;;;18.30;82.00;;;;;;5058789;28;19959;-55
2023/03/04 10:31:13;;;;;;;;;;;18.30;82.10;;;;;;5076672;28;19908;-51
2023/03/04 10:33:39;;;;;;;;;;;18.20;82.10;;;;;;5074902;28;19916;-52
2023/03/04 10:36:04;;;;;;;;;;;18.20;82.10;;;;;;5076499;28;19930;-52
2023/03/04 10:38:32;;;;;;;;;;;18.20;82.20;;;;;;5058535;28;19954;-53
2023/03/04 10:40:57;;;;;;;;;;;18.20;82.20;;;;;;5058324;28;20359;-51
2023/03/04 10:43:23;;;;;;;;;;;18.10;82.20;;;;;;5076533;28;19916;-53
2023/03/04 10:45:53;;;;;;;;;;;18.10;82.50;;;;;;5076353;28;19963;-52
2023/03/04 10:48:20;;;;;;;;;;;18.10;82.40;;;;;;5058175;28;19948;-51
2023/03/04 10:50:46;;;;;;;;;;;18.10;82.60;;;;;;5058428;28;19951;-52
2023/03/04 10:53:32;;;;;;;;;;;18.00;82.70;;;;;;5076643;28;20026;-49
2023/03/04 10:55:58;;;;;;;;;;;18.00;82.80;;;;;;5075709;28;19905;-54
2023/03/04 10:58:23;;;;;;;;;;;18.00;83.00;;;;;;5058055;28;19911;-53
2023/03/04 11:00:58;;;;;;;;;;;18.00;83.00;;;;;;5076436;28;19908;-53
2023/03/04 11:03:26;;;;;;;;;;;18.00;83.10;;;;;;5078270;28;20262;-51
2023/03/04 11:06:07;;;;;;;;;;;18.00;83.00;;;;;;5084315;28;19995;-54
2023/03/04 11:08:32;;;;;;;;;;;18.00;82.80;;;;;;5076016;28;20007;-53
2023/03/04 11:10:58;;;;;;;;;;;18.00;82.70;;;;;;5076057;28;19939;-54
2023/03/04 11:13:24;;;;;;;;;;;18.00;82.40;;;;;;5057905;28;19905;-51
2023/03/04 11:15:54;;;;;;;;;;;18.00;82.20;;;;;;5075771;28;19909;-52
2023/03/04 11:18:26;;;;;;;;;;;18.00;82.00;;;;;;5058204;28;20247;-51
2023/03/04 11:20:52;;;;;;;;;;;18.10;81.70;;;;;;5075651;28;20309;-51
2023/03/04 11:23:22;;;;;;;;;;;18.20;81.70;;;;;;5057902;28;19908;-54
2023/03/04 11:25:57;;;;;;;;;;;18.30;81.50;;;;;;5057934;28;20347;-53
2023/03/04 11:28:41;;;;;;;;;;;18.40;81.30;;;;;;5075059;28;19904;-53
2023/03/04 11:31:15;;;;;;;;;;;18.60;81.30;;;;;;5073715;28;19904;-51
2023/03/04 11:33:41;;;;;;;;;;;18.80;81.00;;;;;;5073512;28;20003;-49
2023/03/04 11:36:06;;;;;;;;;;;19.10;80.00;;;;;;5072656;28;19967;-55
2023/03/04 11:38:35;;;;;;;;;;;19.40;79.70;;;;;;5072607;28;19966;-52
2023/03/04 11:41:04;;;;;;;;;;;19.60;79.40;;;;;;5072893;28;19932;-53
2023/03/04 11:43:41;;;;;;;;;;;19.90;78.60;;;;;;5055877;28;20336;-54
2023/03/04 11:46:10;;;;;;;;;;;20.10;78.00;;;;;;5057498;28;19908;-50
2023/03/04 11:48:43;;;;;;;;;;;20.30;77.90;;;;;;5057247;28;19943;-48
2023/03/04 11:51:12;;;;;;;;;;;20.40;77.40;;;;;;5057216;28;19952;-53
2023/03/04 11:53:53;;;;;;;;;;;20.50;77.40;;;;;;5057123;28;20086;-48
2023/03/04 11:56:30;;;;;;;;;;;20.50;77.00;;;;;;5075192;28;19905;-53
2023/03/04 11:59:08;;;;;;;;;;;20.60;77.00;;;;;;5074806;28;19995;-51
2023/03/04 12:01:39;;;;;;;;;;;20.60;76.70;;;;;;5081699;28;19957;-51
2023/03/04 12:04:23;;;;;;;;;;;20.70;76.70;;;;;;5094987;28;19908;-51
2023/03/04 12:06:49;;;;;;;;;;;20.60;76.70;;;;;;5094793;28;19995;-50
2023/03/04 12:09:20;;;;;;;;;;;20.60;76.70;;;;;;5094875;28;19904;-51
2023/03/04 12:12:04;;;;;;;;;;;20.60;77.00;;;;;;5076445;28;19933;-51
2023/03/04 12:14:40;;;;;;;;;;;20.50;77.00;;;;;;5094761;28;19915;-54
2023/03/04 12:17:29;;;;;;;;;;;20.40;77.10;;;;;;5086498;28;19920;-53
2023/03/04 12:19:55;;;;;;;;;;;20.30;77.10;;;;;;5056479;28;20356;-52
2023/03/04 12:22:32;;;;;;;;;;;20.20;77.80;;;;;;5074893;28;20003;-54
2023/03/04 12:25:06;;;;;;;;;;;20.20;78.00;;;;;;5057946;28;20363;-49
2023/03/04 12:27:42;;;;;;;;;;;20.20;78.10;;;;;;5085488;28;19999;-52
2023/03/04 12:30:17;;;;;;;;;;;20.30;77.60;;;;;;5088170;28;19966;-52
2023/03/04 12:32:42;;;;;;;;;;;20.50;77.40;;;;;;5074589;28;19912;-52
2023/03/04 12:35:29;;;;;;;;;;;20.60;77.00;;;;;;5074069;28;20321;-55
2023/03/04 12:37:55;;;;;;;;;;;20.80;77.00;;;;;;5057552;28;19913;-54
2023/03/04 12:40:39;;;;;;;;;;;20.80;76.90;;;;;;5063825;28;20014;-52
2023/03/04 12:43:17;;;;;;;;;;;20.80;76.70;;;;;;5054247;28;19916;-54
2023/03/04 12:45:42;;;;;;;;;;;20.70;77.10;;;;;;5059248;28;19917;-49
2023/03/04 12:48:16;;;;;;;;;;;20.60;77.30;;;;;;5053894;28;19916;-54
2023/03/04 12:50:50;;;;;;;;;;;20.50;77.40;;;;;;5053118;28;19909;-52
2023/03/04 12:53:28;;;;;;;;;;;20.40;77.50;;;;;;5050913;28;19916;-54
2023/03/04 12:55:55;;;;;;;;;;;20.30;78.20;;;;;;5066430;28;20363;-55
2023/03/04 12:58:26;;;;;;;;;;;20.20;78.00;;;;;;5052169;28;19912;-51
2023/03/04 13:00:56;;;;;;;;;;;20.20;78.20;;;;;;5052839;28;20340;-51
2023/03/04 13:03:24;;;;;;;;;;;20.30;78.10;;;;;;5074236;28;19919;-51
2023/03/04 13:05:56;;;;;;;;;;;20.30;78.10;;;;;;5073755;28;19916;-50
2023/03/04 13:08:30;;;;;;;;;;;20.40;77.90;;;;;;5073798;28;19909;-51
2023/03/04 13:11:22;;;;;;;;;;;20.60;77.50;;;;;;5073947;28;19909;-51
2023/03/04 13:14:00;;;;;;;;;;;20.70;77.40;;;;;;5073488;28;19954;-50
2023/03/04 13:16:43;;;;;;;;;;;20.80;77.30;;;;;;5072700;28;19916;-53
2023/03/04 13:19:44;;;;;;;;;;;20.80;77.10;;;;;;5073770;28;20391;-51
2023/03/04 13:22:31;;;;;;;;;;;20.80;76.90;;;;;;5031149;28;19994;-52
2023/03/04 13:24:57;;;;;;;;;;;20.80;76.70;;;;;;5070723;28;19919;-50
2023/03/04 13:27:41;;;;;;;;;;;20.70;76.90;;;;;;5073328;28;20066;-54
2023/03/04 13:30:25;;;;;;;;;;;20.70;76.90;;;;;;5073070;28;20028;-53
2023/03/04 13:32:51;;;;;;;;;;;20.60;77.20;;;;;;5064908;28;19913;-52
2023/03/04 13:35:35;;;;;;;;;;;20.60;77.30;;;;;;5047783;28;20012;-51
2023/03/04 13:38:01;;;;;;;;;;;20.50;77.50;;;;;;5051631;28;19913;-50
2023/03/04 13:40:35;;;;;;;;;;;20.40;77.40;;;;;;5067974;28;20019;-53
2023/03/04 13:43:39;;;;;;;;;;;20.40;77.60;;;;;;5068721;28;20258;-50
2023/03/04 13:46:31;;;;;;;;;;;20.40;77.80;;;;;;4991903;28;19985;-53
2023/03/04 13:48:59;;;;;;;;;;;20.40;77.70;;;;;;4972745;28;19936;-52
2023/03/04 13:51:26;;;;;;;;;;;20.40;77.60;;;;;;5034128;28;20255;-49
2023/03/04 13:53:52;;;;;;;;;;;20.40;77.50;;;;;;5053597;28;19970;-48
2023/03/04 13:56:17;;;;;;;;;;;20.40;77.70;;;;;;5070423;28;19912;-52
2023/03/04 13:58:43;;;;;;;;;;;20.40;77.60;;;;;;5071466;28;20004;-53
2023/03/04 14:01:25;;;;;;;;;;;20.30;77.80;;;;;;5079152;28;19951;-49
2023/03/04 14:03:51;;;;;;;;;;;20.30;77.60;;;;;;5075531;28;19965;-52
2023/03/04 14:06:26;;;;;;;;;;;20.40;77.70;;;;;;5077350;28;20309;-48
2023/03/04 14:08:52;;;;;;;;;;;20.40;77.60;;;;;;5077308;28;19912;-49
2023/03/04 14:11:23;;;;;;;;;;;20.30;77.70;;;;;;5076938;28;19909;-49
2023/03/04 14:13:49;;;;;;;;;;;20.30;77.70;;;;;;5077176;28;19915;-49
2023/03/04 14:16:19;;;;;;;;;;;20.30;77.50;;;;;;5077060;28;19908;-49
2023/03/04 14:18:45;;;;;;;;;;;20.30;77.50;;;;;;5077951;28;20251;-54
2023/03/04 14:21:13;;;;;;;;;;;20.30;77.50;;;;;;5071679;28;20014;-52